RJDB(METAR)
08/14 18:00
RJDB 140900Z 22014KT 9999 SCT020 BKN030 29/26 Q1009 RMK A2980=
戻る
トップページへ戻る
IMOC Co,.Ltd.